»·PEaware :: SKY107 KSBP-KOAR

SKY107 :: KSBP-KOAR

FLIGHT INFORMATION

Flight Status: Arrived
Operator:
Sky High Charters
More flights by this operator :: More flights under this callsign
Pilot: Ryan R. (14877)
Aircraft: SOCATA TBM-900
(TBM9)
More flights by this aircraft type
Origin: KSBP San Luis Co Regl
United States
Destination: KOAR Marina
United States
More flights between these airports :: More routes between these airports
Route: CREPE3 PRB V248 SARDO ZURET
File this flight plan on PilotEdge
Remarks: Skycharters #4
Altitude:
(Current/Filed)
8,000ft
Speed:
(Current/Filed)
200kts
Departed: 02-Aug-19 06:39 PM
Arrived: 02-Aug-19 07:16 PM
Distance/Time
Traveled:
102nm/0:36
Distance/Time
To Go:
Arrived

Flight Plot

Page will automatically refresh every two minutes.


Map Options




Map Legend


Flown Route
Filed Route
Departure Airport
Arrival Airport
Navaid (VOR, NDB)
Fix

Horizontal Profiles

Position Reports

Time Latitude Longitude Heading Altitude Ground
Speed
02-Aug-19 18:19 35.234436 -120.632955 214 215ft 0kts
02-Aug-19 18:20 35.234436 -120.632955 214 215ft 0kts
02-Aug-19 18:21 35.234436 -120.632955 214 215ft 0kts
02-Aug-19 18:22 35.234436 -120.632955 214 215ft 0kts
02-Aug-19 18:23 35.234436 -120.632955 214 215ft 0kts
02-Aug-19 18:24 35.234436 -120.632955 214 215ft 0kts
02-Aug-19 18:25 35.234436 -120.632955 214 215ft 0kts
02-Aug-19 18:26 35.234436 -120.632955 214 215ft 0kts
02-Aug-19 18:27 35.234436 -120.632955 214 215ft 0kts
02-Aug-19 18:28 35.234436 -120.632955 214 215ft 0kts
02-Aug-19 18:29 35.234436 -120.632955 214 215ft 0kts
02-Aug-19 18:30 35.234436 -120.632955 214 215ft 0kts
02-Aug-19 18:31 35.234436 -120.632955 214 215ft 0kts
02-Aug-19 18:32 35.234436 -120.632955 214 215ft 0kts
02-Aug-19 18:33 35.234436 -120.632955 214 215ft 0kts
02-Aug-19 18:34 35.234436 -120.632955 214 215ft 0kts
02-Aug-19 18:35 35.233374 -120.632264 174 215ft 0kts
02-Aug-19 18:36 35.233374 -120.632264 174 215ft 0kts
02-Aug-19 18:37 35.233374 -120.632264 174 215ft 0kts
02-Aug-19 18:38 35.238450 -120.643000 304 215ft 115kts
02-Aug-19 18:39 35.256141 -120.676155 302 1922ft 118kts
02-Aug-19 18:40 35.276730 -120.709783 300 4216ft 123kts
02-Aug-19 18:41 35.303722 -120.755308 302 5233ft 198kts
02-Aug-19 18:42 35.333270 -120.812948 305 6703ft 196kts
02-Aug-19 18:43 35.376329 -120.855877 14 8004ft 230kts
02-Aug-19 18:44 35.435721 -120.809825 31 8000ft 258kts
02-Aug-19 18:45 35.498988 -120.761142 32 7995ft 260kts
02-Aug-19 18:46 35.559432 -120.714516 32 8005ft 247kts
02-Aug-19 18:47 35.618075 -120.669257 32 8008ft 245kts
02-Aug-19 18:48 35.680996 -120.631544 348 8004ft 257kts
02-Aug-19 18:49 35.751907 -120.658950 342 8009ft 264kts
02-Aug-19 18:50 35.823498 -120.687543 342 8007ft 265kts
02-Aug-19 18:51 35.895440 -120.716334 342 8007ft 266kts
02-Aug-19 18:52 35.967465 -120.745214 342 8007ft 266kts
02-Aug-19 18:53 36.039357 -120.774093 342 8007ft 266kts
02-Aug-19 18:54 36.104302 -120.814433 314 8021ft 266kts
02-Aug-19 18:55 36.156979 -120.880903 314 8008ft 267kts
02-Aug-19 18:56 36.209971 -120.947437 314 8008ft 267kts
02-Aug-19 18:57 36.262881 -121.013987 314 8025ft 266kts
02-Aug-19 18:58 36.315738 -121.080597 314 8051ft 265kts
02-Aug-19 18:59 36.367008 -121.145394 314 8078ft 263kts
02-Aug-19 19:00 36.416268 -121.207607 314 8069ft 209kts
02-Aug-19 19:01 36.450929 -121.251365 315 7928ft 158kts
02-Aug-19 19:02 36.485194 -121.294817 314 6454ft 182kts
02-Aug-19 19:03 36.518017 -121.339307 305 5650ft 165kts
02-Aug-19 19:04 36.544059 -121.386236 305 4929ft 163kts
02-Aug-19 19:05 36.569511 -121.432239 305 4588ft 150kts
02-Aug-19 19:06 36.592018 -121.472950 305 4560ft 137kts
02-Aug-19 19:07 36.616379 -121.517134 305 3893ft 158kts
02-Aug-19 19:08 36.630751 -121.562635 284 3800ft 124kts
02-Aug-19 19:09 36.639213 -121.596719 290 3161ft 117kts
02-Aug-19 19:10 36.648001 -121.630349 281 2477ft 106kts
02-Aug-19 19:11 36.652529 -121.667171 286 1664ft 98kts
02-Aug-19 19:12 36.660642 -121.698771 287 942ft 96kts
02-Aug-19 19:13 36.665661 -121.728608 287 568ft 102kts
02-Aug-19 19:14 36.678370 -121.755581 298 174ft 78kts
02-Aug-19 19:15 36.679947 -121.764034 225 138ft 13kts
02-Aug-19 19:16 36.679905 -121.764086 225 138ft 0kts
02-Aug-19 19:17 36.679905 -121.764086 225 138ft 0kts
02-Aug-19 19:18 36.679905 -121.764086 225 138ft 0kts
02-Aug-19 19:19 36.679905 -121.764086 225 138ft 0kts
02-Aug-19 19:20 36.679905 -121.764086 225 138ft 0kts

Navigation Log

Ident Type
Flight plan parsing failed, navigation log unavailable